Time;durP1;ratioP1;P1;durP2;ratioP2;P2;SDS_P1;SDS_P2;PMS_P1;PMS_P2;Temp;Humidity;BMP_temperature;BMP_pressure;BME280_temperature;BME280_humidity;BME280_pressure;Samples;Min_cycle;Max_cycle;Signal;HPM_P1;HPM_P2
2021/04/19 00:00:57;;;;;;;5.63;2.00;;;18.10;63.40;;;;;;4182163;28;20037;-47
2021/04/19 00:02:59;;;;;;;5.18;2.47;;;18.20;63.50;;;;;;4178411;28;20044;-53
2021/04/19 00:05:01;;;;;;;5.32;2.42;;;18.20;63.60;;;;;;4182596;28;20029;-49
2021/04/19 00:07:04;;;;;;;4.28;2.00;;;18.10;63.60;;;;;;4182504;28;20151;-45
2021/04/19 00:09:06;;;;;;;4.60;2.35;;;18.20;63.70;;;;;;4182890;28;20047;-44
2021/04/19 00:11:09;;;;;;;3.55;2.20;;;18.20;63.80;;;;;;4183105;28;20032;-49
2021/04/19 00:13:11;;;;;;;7.43;2.40;;;18.20;63.90;;;;;;4183287;28;20103;-46
2021/04/19 00:15:16;;;;;;;4.40;2.47;;;18.20;64.10;;;;;;4182445;28;20040;-46
2021/04/19 00:17:18;;;;;;;5.07;2.47;;;18.20;64.20;;;;;;4183241;28;20040;-46
2021/04/19 00:19:20;;;;;;;7.68;3.00;;;18.20;64.20;;;;;;4183788;28;20033;-44
2021/04/19 00:21:22;;;;;;;5.00;2.50;;;18.20;64.10;;;;;;4185125;28;20040;-52
2021/04/19 00:23:24;;;;;;;7.78;2.70;;;18.20;64.10;;;;;;4184244;28;20041;-47
2021/04/19 00:25:27;;;;;;;4.53;2.83;;;18.20;64.20;;;;;;4184121;28;20085;-44
2021/04/19 00:27:29;;;;;;;6.73;2.50;;;18.20;64.20;;;;;;4181945;28;20400;-49
2021/04/19 00:29:31;;;;;;;5.28;2.72;;;18.20;64.20;;;;;;4184637;28;20421;-53
2021/04/19 00:31:33;;;;;;;4.28;2.40;;;18.20;64.30;;;;;;4183711;28;20020;-48
2021/04/19 00:33:36;;;;;;;6.28;2.97;;;18.30;64.40;;;;;;4179609;28;20032;-46
2021/04/19 00:35:38;;;;;;;8.65;2.53;;;18.30;64.40;;;;;;4182822;28;20044;-48
2021/04/19 00:37:40;;;;;;;7.60;3.10;;;18.30;64.40;;;;;;4184266;28;20039;-45
2021/04/19 00:39:43;;;;;;;4.95;2.80;;;18.30;64.60;;;;;;4181874;28;20489;-48
2021/04/19 00:41:46;;;;;;;7.47;2.50;;;18.30;64.70;;;;;;4182374;28;20048;-47
2021/04/19 00:43:48;;;;;;;4.63;2.53;;;18.30;64.60;;;;;;4182479;28;20098;-44
2021/04/19 00:45:51;;;;;;;6.35;2.78;;;18.30;64.60;;;;;;4182752;28;20062;-44
2021/04/19 00:47:53;;;;;;;5.38;2.50;;;18.30;64.60;;;;;;4184115;28;20029;-49
2021/04/19 00:49:56;;;;;;;4.25;1.92;;;18.40;64.70;;;;;;4182775;28;20106;-45
2021/04/19 00:51:59;;;;;;;4.57;2.20;;;18.40;64.70;;;;;;4184060;28;20029;-46
2021/04/19 00:54:02;;;;;;;4.05;2.03;;;18.40;64.70;;;;;;4182822;28;20048;-46
2021/04/19 00:56:05;;;;;;;4.18;1.92;;;18.40;64.80;;;;;;4185920;28;20052;-48
2021/04/19 00:58:07;;;;;;;3.05;2.33;;;18.40;64.60;;;;;;4183499;28;20208;-48
2021/04/19 01:00:15;;;;;;;4.78;2.85;;;18.40;64.50;;;;;;4183178;28;20047;-49
2021/04/19 01:02:17;;;;;;;2.92;2.03;;;18.40;64.40;;;;;;4187053;28;20520;-51
2021/04/19 01:04:19;;;;;;;3.13;2.20;;;18.50;64.50;;;;;;4198995;28;20077;-47
2021/04/19 01:06:21;;;;;;;3.55;2.10;;;18.40;64.50;;;;;;4198637;28;20036;-50
2021/04/19 01:08:23;;;;;;;3.15;2.65;;;18.40;64.50;;;;;;4180987;28;20032;-48
2021/04/19 01:10:25;;;;;;;3.05;2.50;;;18.40;64.40;;;;;;4201558;28;20111;-45
2021/04/19 01:12:27;;;;;;;8.77;2.47;;;18.50;64.50;;;;;;4198201;28;20086;-50
2021/04/19 01:14:29;;;;;;;7.25;2.63;;;18.50;64.90;;;;;;4199577;28;20054;-48
2021/04/19 01:16:31;;;;;;;4.80;2.80;;;18.50;65.10;;;;;;4197374;28;20123;-48
2021/04/19 01:18:33;;;;;;;5.78;3.00;;;18.50;65.30;;;;;;4197883;28;20515;-46
2021/04/19 01:20:43;;;;;;;5.22;2.50;;;18.60;65.40;;;;;;4198140;28;20063;-50
2021/04/19 01:22:46;;;;;;;5.20;2.88;;;18.50;65.30;;;;;;4199817;28;20032;-50
2021/04/19 01:24:48;;;;;;;4.67;2.70;;;18.60;65.40;;;;;;4200129;28;20032;-45
2021/04/19 01:26:50;;;;;;;7.82;2.83;;;18.60;66.00;;;;;;4198318;28;20165;-58
2021/04/19 01:28:53;;;;;;;3.72;2.90;;;18.60;65.40;;;;;;4198608;28;20028;-57
2021/04/19 01:30:55;;;;;;;7.30;3.20;;;18.70;65.60;;;;;;4196142;28;20532;-47
2021/04/19 01:32:57;;;;;;;6.70;2.85;;;18.70;65.50;;;;;;4177984;28;20044;-48
2021/04/19 01:35:00;;;;;;;8.18;3.28;;;18.80;65.40;;;;;;4199184;28;20233;-46
2021/04/19 01:37:02;;;;;;;7.55;2.92;;;18.80;64.90;;;;;;4198770;28;20039;-48
2021/04/19 01:39:04;;;;;;;5.72;2.67;;;18.80;64.70;;;;;;4197168;28;20062;-48
2021/04/19 01:41:07;;;;;;;2.77;2.33;;;18.80;64.70;;;;;;4196350;28;20425;-48
2021/04/19 01:43:09;;;;;;;6.03;2.58;;;18.80;64.70;;;;;;4197869;28;20040;-44
2021/04/19 01:45:12;;;;;;;2.67;2.20;;;18.90;64.80;;;;;;4195852;28;20070;-46
2021/04/19 01:47:15;;;;;;;3.83;2.60;;;18.90;64.80;;;;;;4197005;28;20063;-50
2021/04/19 01:49:21;;;;;;;3.92;2.33;;;18.90;64.80;;;;;;4200203;28;20053;-47
2021/04/19 01:51:26;;;;;;;2.83;2.45;;;19.00;64.80;;;;;;4195971;28;20118;-46
2021/04/19 01:53:28;;;;;;;3.38;2.05;;;19.00;64.70;;;;;;4194329;28;20074;-46
2021/04/19 01:55:32;;;;;;;3.67;2.15;;;19.00;64.60;;;;;;4200542;28;20019;-49
2021/04/19 01:57:38;;;;;;;3.17;2.10;;;19.00;64.70;;;;;;4198694;28;20151;-44
2021/04/19 01:59:41;;;;;;;4.80;2.40;;;19.10;64.70;;;;;;4198692;28;20098;-45
2021/04/19 02:02:09;;;;;;;3.95;2.55;;;19.10;64.40;;;;;;4199848;28;20400;-48
2021/04/19 02:04:26;;;;;;;4.72;2.13;;;19.10;64.00;;;;;;4185540;28;20048;-45
2021/04/19 02:06:48;;;;;;;3.67;2.33;;;19.20;64.00;;;;;;4195728;28;20493;-49
2021/04/19 02:09:02;;;;;;;7.55;1.90;;;19.20;63.90;;;;;;4196752;28;20040;-42
2021/04/19 02:11:10;;;;;;;5.05;2.47;;;19.20;63.90;;;;;;4200076;28;20024;-43
2021/04/19 02:13:17;;;;;;;5.32;2.00;;;19.20;63.80;;;;;;4194449;28;20036;-45
2021/04/19 02:15:49;;;;;;;4.20;2.20;;;19.20;63.70;;;;;;4195230;28;20166;-40
2021/04/19 02:18:11;;;;;;;4.18;1.90;;;19.20;63.80;;;;;;4197044;28;20024;-46
2021/04/19 02:20:30;;;;;;;5.13;2.00;;;19.30;63.80;;;;;;4200230;28;20564;-41
2021/04/19 02:22:43;;;;;;;6.45;1.88;;;19.30;64.00;;;;;;4200010;28;20036;-43
2021/04/19 02:24:50;;;;;;;9.98;2.80;;;19.30;64.10;;;;;;4204383;28;20040;-40
2021/04/19 02:27:01;;;;;;;7.15;2.78;;;19.30;63.70;;;;;;4204024;28;20516;-40
2021/04/19 02:29:09;;;;;;;4.90;3.60;;;19.30;63.50;;;;;;4207045;28;20557;-44
2021/04/19 02:31:14;;;;;;;6.50;3.88;;;19.40;63.90;;;;;;4208363;28;20028;-44
2021/04/19 02:33:20;;;;;;;7.03;3.50;;;19.40;63.70;;;;;;4204932;28;20039;-42
2021/04/19 02:35:25;;;;;;;5.63;3.53;;;19.40;63.40;;;;;;4206705;28;20036;-43
2021/04/19 02:37:31;;;;;;;6.10;3.40;;;19.40;63.20;;;;;;4208930;28;20017;-42
2021/04/19 02:39:39;;;;;;;5.03;3.28;;;19.40;62.90;;;;;;4200620;28;20124;-45
2021/04/19 02:41:44;;;;;;;4.85;3.30;;;19.50;62.70;;;;;;4184148;28;20059;-43
2021/04/19 02:43:47;;;;;;;9.82;3.40;;;19.50;62.40;;;;;;4204219;28;20039;-43
2021/04/19 02:45:52;;;;;;;5.60;3.33;;;19.50;62.10;;;;;;4202741;28;20032;-46
2021/04/19 02:47:54;;;;;;;7.05;4.00;;;19.50;61.70;;;;;;4201102;28;20396;-43
2021/04/19 02:49:57;;;;;;;6.13;3.47;;;19.50;61.30;;;;;;4203190;28;20095;-45
2021/04/19 02:52:01;;;;;;;5.38;3.30;;;19.50;61.10;;;;;;4201820;28;20043;-45
2021/04/19 02:54:04;;;;;;;5.65;3.70;;;19.60;60.90;;;;;;4201841;28;20032;-42
2021/04/19 02:56:08;;;;;;;5.88;3.58;;;19.60;60.60;;;;;;4201581;28;20421;-42
2021/04/19 02:58:11;;;;;;;4.22;3.42;;;19.60;60.60;;;;;;4203155;28;20036;-45
2021/04/19 03:00:14;;;;;;;5.63;3.88;;;19.60;60.30;;;;;;4200280;28;20058;-41
2021/04/19 03:02:17;;;;;;;5.90;3.90;;;19.60;59.80;;;;;;4199510;28;20059;-42
2021/04/19 03:04:23;;;;;;;7.07;3.83;;;19.70;59.70;;;;;;4202498;28;20303;-42
2021/04/19 03:06:29;;;;;;;5.07;3.67;;;19.70;59.90;;;;;;4197847;28;20135;-42
2021/04/19 03:08:35;;;;;;;4.53;3.42;;;19.70;60.10;;;;;;4198064;28;20054;-43
2021/04/19 03:10:43;;;;;;;4.93;3.28;;;19.70;60.00;;;;;;4184051;28;20039;-42
2021/04/19 03:12:56;;;;;;;7.28;3.70;;;19.70;59.80;;;;;;4198858;28;20047;-44
2021/04/19 03:15:08;;;;;;;5.88;3.60;;;19.80;59.70;;;;;;4202453;28;20091;-43
2021/04/19 03:17:13;;;;;;;5.13;3.38;;;19.80;59.30;;;;;;4199221;28;20027;-44
2021/04/19 03:19:20;;;;;;;4.53;3.47;;;19.80;59.30;;;;;;4202614;28;20024;-43
2021/04/19 03:21:27;;;;;;;6.07;3.50;;;19.90;59.30;;;;;;4199017;28;20036;-45
2021/04/19 03:23:30;;;;;;;5.53;3.30;;;19.90;59.00;;;;;;4202563;28;20048;-43
2021/04/19 03:25:32;;;;;;;5.90;3.38;;;20.00;58.80;;;;;;4200631;28;20027;-43
2021/04/19 03:27:38;;;;;;;6.10;3.28;;;20.00;58.90;;;;;;4183932;28;20080;-42
2021/04/19 03:29:42;;;;;;;5.15;2.97;;;20.00;58.80;;;;;;4201215;28;20032;-44
2021/04/19 03:31:55;;;;;;;6.40;3.20;;;20.10;59.20;;;;;;4202160;28;20032;-42
2021/04/19 03:34:06;;;;;;;7.47;3.70;;;20.10;59.10;;;;;;4197193;28;20047;-41
2021/04/19 03:36:11;;;;;;;5.80;3.20;;;20.10;58.80;;;;;;4200011;28;20481;-44
2021/04/19 03:38:16;;;;;;;6.43;3.20;;;20.20;58.70;;;;;;4200200;28;20093;-41
2021/04/19 03:40:29;;;;;;;4.32;2.80;;;20.20;58.60;;;;;;4198065;28;20031;-43
2021/04/19 03:42:34;;;;;;;4.18;3.00;;;20.30;58.50;;;;;;4203009;28;20062;-43
2021/04/19 03:44:38;;;;;;;4.95;3.05;;;20.30;58.40;;;;;;4197788;28;20044;-43
2021/04/19 03:46:42;;;;;;;4.82;3.00;;;20.30;58.20;;;;;;4201595;28;20121;-43
2021/04/19 03:48:46;;;;;;;4.75;2.70;;;20.40;58.10;;;;;;4198625;28;20063;-44
2021/04/19 03:51:05;;;;;;;5.18;2.72;;;20.40;58.00;;;;;;4180073;28;20036;-43
2021/04/19 03:53:08;;;;;;;5.63;2.67;;;20.50;58.00;;;;;;4200190;28;20074;-55
2021/04/19 03:55:14;;;;;;;3.70;2.72;;;20.60;58.00;;;;;;4198717;28;20044;-40
2021/04/19 03:57:18;;;;;;;5.85;3.17;;;20.60;57.90;;;;;;4198073;28;20436;-40
2021/04/19 03:59:22;;;;;;;4.40;2.78;;;20.60;57.70;;;;;;4198598;28;20331;-43
2021/04/19 04:01:26;;;;;;;3.95;2.67;;;20.70;57.80;;;;;;4202648;28;20027;-43
2021/04/19 04:03:29;;;;;;;6.40;3.17;;;20.80;57.80;;;;;;4164601;28;20048;-43
2021/04/19 04:05:31;;;;;;;9.63;3.47;;;20.80;57.50;;;;;;4166085;28;20032;-43
2021/04/19 04:07:34;;;;;;;5.20;2.90;;;20.90;57.60;;;;;;4165185;28;20481;-42
2021/04/19 04:09:36;;;;;;;;;;;20.90;57.80;;;;;;4166818;28;20033;-43
2021/04/19 04:11:39;;;;;;;5.55;2.97;;;21.00;57.60;;;;;;4166593;28;19921;-47
2021/04/19 04:13:41;;;;;;;3.77;2.80;;;21.00;57.40;;;;;;4168150;28;20109;-45
2021/04/19 04:15:59;;;;;;;4.30;2.85;;;21.10;57.70;;;;;;4166808;28;20278;-44
2021/04/19 04:18:02;;;;;;;4.55;2.72;;;21.20;56.70;;;;;;4167710;28;20144;-48
2021/04/19 04:20:05;;;;;;;4.15;2.80;;;21.20;56.40;;;;;;4167886;28;20052;-47
2021/04/19 04:22:08;;;;;;;4.72;2.88;;;21.30;56.40;;;;;;4162533;28;20044;-42
2021/04/19 04:24:10;;;;;;;4.30;2.53;;;21.30;56.80;;;;;;4166292;28;20366;-47
2021/04/19 04:26:13;;;;;;;3.95;2.38;;;21.40;57.10;;;;;;4167415;28;20021;-47
2021/04/19 04:28:15;;;;;;;3.90;2.40;;;21.50;57.30;;;;;;4168106;28;20082;-43
2021/04/19 04:30:17;;;;;;;6.17;2.30;;;21.60;57.40;;;;;;4167215;28;20734;-45
2021/04/19 04:32:19;;;;;;;4.88;2.22;;;21.60;56.70;;;;;;4164884;28;20640;-47
2021/04/19 04:34:22;;;;;;;7.72;2.55;;;21.70;56.60;;;;;;4162179;28;20043;-45
2021/04/19 04:36:24;;;;;;;4.95;2.83;;;21.80;56.60;;;;;;4158371;28;20094;-47
2021/04/19 04:38:26;;;;;;;3.63;2.20;;;21.80;56.40;;;;;;4165652;28;20511;-46
2021/04/19 04:40:30;;;;;;;3.67;2.22;;;21.90;56.40;;;;;;4166842;28;20067;-48
2021/04/19 04:42:34;;;;;;;4.45;2.40;;;22.00;56.40;;;;;;4166299;28;20029;-47
2021/04/19 04:44:43;;;;;;;4.72;2.45;;;22.00;56.20;;;;;;4164235;28;20151;-44
2021/04/19 04:47:27;;;;;;;3.58;2.10;;;22.10;56.00;;;;;;4165551;28;20076;-44
2021/04/19 04:49:41;;;;;;;3.05;2.13;;;22.20;55.80;;;;;;4164499;28;20110;-44
2021/04/19 04:51:47;;;;;;;2.13;1.90;;;22.30;55.50;;;;;;4168008;28;20463;-43
2021/04/19 04:54:02;;;;;;;3.78;2.00;;;22.40;55.40;;;;;;4165315;28;20041;-45
2021/04/19 04:56:06;;;;;;;4.38;2.13;;;22.50;55.20;;;;;;4168629;28;20468;-51
2021/04/19 04:58:09;;;;;;;3.67;2.20;;;22.60;55.10;;;;;;4165354;28;20026;-49
2021/04/19 05:00:14;;;;;;;3.30;2.80;;;22.60;55.00;;;;;;4165029;28;20061;-48
2021/04/19 05:02:23;;;;;;;3.15;2.38;;;22.70;54.80;;;;;;4169927;28;20075;-47
2021/04/19 05:04:28;;;;;;;4.55;2.58;;;22.80;54.60;;;;;;4186071;28;20328;-43
2021/04/19 05:06:31;;;;;;;4.07;2.40;;;22.90;54.40;;;;;;4179399;28;20032;-42
2021/04/19 05:08:37;;;;;;;5.97;2.83;;;23.00;54.30;;;;;;4182024;28;20040;-42
2021/04/19 05:10:43;;;;;;;4.75;2.97;;;23.10;54.00;;;;;;4182953;28;20028;-46
2021/04/19 05:12:45;;;;;;;3.75;2.50;;;23.20;53.50;;;;;;4183785;28;20040;-43
2021/04/19 05:14:57;;;;;;;4.03;3.00;;;23.30;53.20;;;;;;4183057;28;20127;-44
2021/04/19 05:16:59;;;;;;;4.37;3.00;;;23.40;53.00;;;;;;4184087;28;20552;-43
2021/04/19 05:19:04;;;;;;;3.70;2.70;;;23.50;52.80;;;;;;4181188;28;20270;-42
2021/04/19 05:21:06;;;;;;;3.33;2.80;;;23.60;52.60;;;;;;4181533;28;20066;-42
2021/04/19 05:23:09;;;;;;;4.03;3.15;;;23.70;52.40;;;;;;4181030;28;20036;-52
2021/04/19 05:25:12;;;;;;;4.57;2.75;;;23.70;52.50;;;;;;4182711;28;20154;-46
2021/04/19 05:27:15;;;;;;;4.45;3.33;;;23.60;52.50;;;;;;4179650;28;20037;-47
2021/04/19 05:29:18;;;;;;;9.23;3.22;;;23.60;52.60;;;;;;4181151;28;20042;-46
2021/04/19 05:31:21;;;;;;;4.57;3.20;;;23.60;52.60;;;;;;4183807;28;20038;-44
2021/04/19 05:33:23;;;;;;;6.22;3.10;;;23.60;52.70;;;;;;4181410;28;20048;-44
2021/04/19 05:35:26;;;;;;;4.07;2.83;;;23.60;52.80;;;;;;4182470;28;20028;-42
2021/04/19 05:37:28;;;;;;;;;;;23.50;52.80;;;;;;4183972;28;20056;-46
2021/04/19 05:39:33;;;;;;;4.70;2.47;;;23.50;53.00;;;;;;4183743;28;19916;-42
2021/04/19 05:41:37;;;;;;;4.45;2.58;;;23.50;52.80;;;;;;4180260;28;20036;-42
2021/04/19 05:43:44;;;;;;;6.25;2.40;;;23.50;52.90;;;;;;4186303;28;20531;-43
2021/04/19 05:45:48;;;;;;;3.95;2.42;;;23.50;53.90;;;;;;4180210;28;20044;-44
2021/04/19 05:47:51;;;;;;;6.18;2.42;;;23.60;53.50;;;;;;4182035;28;20447;-46
2021/04/19 05:49:52;;;;;;;;;;;23.50;53.00;;;;;;4181986;28;20024;-42
2021/04/19 05:51:58;;;;;;;53.90;5.65;;;23.50;53.20;;;;;;4182398;28;20107;-41
2021/04/19 05:54:00;;;;;;;47.67;5.20;;;23.60;53.70;;;;;;4194643;28;20074;-43
2021/04/19 05:56:06;;;;;;;26.48;4.47;;;23.60;54.00;;;;;;4184823;28;20021;-44
2021/04/19 05:58:39;;;;;;;15.15;3.80;;;23.60;54.10;;;;;;4178906;28;20131;-45
2021/04/19 06:00:56;;;;;;;17.95;4.28;;;23.60;54.30;;;;;;4178862;28;20135;-42
2021/04/19 06:03:10;;;;;;;16.10;3.20;;;23.60;54.30;;;;;;4174667;28;20059;-44
2021/04/19 06:05:22;;;;;;;9.52;3.05;;;23.60;54.50;;;;;;4180654;28;20025;-48
2021/04/19 06:07:33;;;;;;;15.88;2.95;;;23.60;54.50;;;;;;4181593;28;20034;-49
2021/04/19 06:09:58;;;;;;;21.98;3.42;;;23.60;54.30;;;;;;4181758;28;20036;-47
2021/04/19 06:12:06;;;;;;;11.48;2.90;;;23.60;54.10;;;;;;4175712;28;20564;-47
2021/04/19 06:14:15;;;;;;;19.25;3.05;;;23.70;54.20;;;;;;4180502;28;20527;-51
2021/04/19 06:16:18;;;;;;;18.80;2.88;;;23.70;54.50;;;;;;4183034;28;20371;-49
2021/04/19 06:18:23;;;;;;;16.17;2.60;;;23.70;54.80;;;;;;4182572;28;20043;-52
2021/04/19 06:20:26;;;;;;;16.95;2.80;;;23.70;55.00;;;;;;4179228;28;20039;-45
2021/04/19 06:22:28;;;;;;;8.02;2.22;;;23.70;54.90;;;;;;4182811;28;20029;-48
2021/04/19 06:24:31;;;;;;;6.53;1.95;;;23.70;54.80;;;;;;4181594;28;20342;-47
2021/04/19 06:26:34;;;;;;;8.35;2.50;;;23.70;54.90;;;;;;4181625;28;20064;-47
2021/04/19 06:28:37;;;;;;;;;;;23.70;54.80;;;;;;4182439;28;20031;-44
2021/04/19 06:30:43;;;;;;;10.05;2.55;;;23.70;55.10;;;;;;4184034;28;19963;-49
2021/04/19 06:32:48;;;;;;;6.75;2.20;;;23.70;55.00;;;;;;4181149;28;20117;-47
2021/04/19 06:34:53;;;;;;;7.38;2.70;;;23.70;54.90;;;;;;4184796;28;20028;-48
2021/04/19 06:36:55;;;;;;;5.65;2.20;;;23.80;55.10;;;;;;4172580;28;20040;-47
2021/04/19 06:38:57;;;;;;;8.00;2.45;;;23.80;54.60;;;;;;4198128;28;20450;-45
2021/04/19 06:40:59;;;;;;;6.70;2.20;;;23.80;54.50;;;;;;4185480;28;20042;-46
2021/04/19 06:43:01;;;;;;;5.40;2.40;;;23.70;54.70;;;;;;4181901;28;20147;-46
2021/04/19 06:45:06;;;;;;;5.13;2.13;;;23.80;54.70;;;;;;4182830;28;20040;-45
2021/04/19 06:47:09;;;;;;;5.47;1.95;;;23.80;54.60;;;;;;4178439;28;20404;-55
2021/04/19 06:49:13;;;;;;;6.43;2.47;;;23.70;54.60;;;;;;4180608;28;20017;-48
2021/04/19 06:51:15;;;;;;;3.50;1.92;;;23.80;54.70;;;;;;4183901;28;20043;-45
2021/04/19 06:53:17;;;;;;;3.53;2.35;;;23.80;54.60;;;;;;4179800;28;20101;-44
2021/04/19 06:55:21;;;;;;;3.50;2.28;;;23.80;54.60;;;;;;4182737;28;20017;-48
2021/04/19 06:57:24;;;;;;;3.72;2.47;;;23.80;54.60;;;;;;4199232;28;20121;-48
2021/04/19 06:59:26;;;;;;;;;;;23.80;54.70;;;;;;4179812;28;20071;-48
2021/04/19 07:01:30;;;;;;;3.50;2.10;;;23.80;54.70;;;;;;4182357;28;19912;-46
2021/04/19 07:03:33;;;;;;;4.13;2.20;;;23.80;54.80;;;;;;4197752;28;20048;-46
2021/04/19 07:05:37;;;;;;;4.10;2.50;;;23.80;54.80;;;;;;4198914;28;20028;-45
2021/04/19 07:07:57;;;;;;;3.47;2.38;;;23.80;55.00;;;;;;4197861;28;20107;-48
2021/04/19 07:10:02;;;;;;;5.55;2.75;;;23.80;55.00;;;;;;4199882;28;20519;-44
2021/04/19 07:12:13;;;;;;;3.40;2.33;;;23.80;55.00;;;;;;4200552;28;20057;-44
2021/04/19 07:14:17;;;;;;;5.85;2.47;;;23.80;54.50;;;;;;4197614;28;20107;-42
2021/04/19 07:16:19;;;;;;;4.00;2.38;;;23.70;54.60;;;;;;4204419;28;20506;-46
2021/04/19 07:18:22;;;;;;;5.10;2.65;;;23.70;54.80;;;;;;4207336;28;20040;-43
2021/04/19 07:20:24;;;;;;;5.03;2.83;;;23.70;55.00;;;;;;4214196;28;20552;-42
2021/04/19 07:22:27;;;;;;;5.45;2.78;;;23.70;55.10;;;;;;4214915;28;20039;-42
2021/04/19 07:24:29;;;;;;;5.75;3.08;;;23.70;55.30;;;;;;4211646;28;20099;-43
2021/04/19 07:26:31;;;;;;;4.47;2.72;;;23.70;55.40;;;;;;4212288;28;20028;-43
2021/04/19 07:28:37;;;;;;;5.18;2.65;;;23.70;55.50;;;;;;4203564;28;20481;-45
2021/04/19 07:30:39;;;;;;;3.60;2.50;;;23.70;55.60;;;;;;4200819;28;20088;-44
2021/04/19 07:32:42;;;;;;;3.75;2.40;;;23.70;55.60;;;;;;4200726;28;20052;-42
2021/04/19 07:34:58;;;;;;;4.45;2.22;;;23.70;55.50;;;;;;4203650;28;20116;-48
2021/04/19 07:37:05;;;;;;;2.95;2.15;;;23.70;55.60;;;;;;4201144;28;20043;-43
2021/04/19 07:39:16;;;;;;;3.50;2.00;;;23.70;55.60;;;;;;4201642;28;20040;-42
2021/04/19 07:41:20;;;;;;;3.78;2.15;;;23.60;55.50;;;;;;4191170;28;20032;-44
2021/04/19 07:43:24;;;;;;;;;;;23.60;55.70;;;;;;4195493;28;20031;-42
2021/04/19 07:45:25;;;;;;;;;;;23.60;55.70;;;;;;4192172;28;20135;-42
2021/04/19 07:47:41;;;;;;;5.72;1.80;;;23.60;55.70;;;;;;4198977;28;20224;-42
2021/04/19 07:50:13;;;;;;;4.80;1.90;;;23.60;55.60;;;;;;4201463;28;20028;-42
2021/04/19 07:52:15;;;;;;;3.55;1.90;;;23.70;55.60;;;;;;4195328;28;20037;-42
2021/04/19 07:54:20;;;;;;;4.10;2.10;;;23.70;55.80;;;;;;4201918;28;20473;-43
2021/04/19 07:56:22;;;;;;;2.72;1.92;;;23.70;55.90;;;;;;4197297;28;20046;-43
2021/04/19 07:58:27;;;;;;;2.75;1.63;;;23.70;55.90;;;;;;4202200;28;20095;-53
2021/04/19 08:00:40;;;;;;;3.63;2.78;;;23.70;56.00;;;;;;4198141;28;20036;-43
2021/04/19 08:02:42;;;;;;;3.78;2.85;;;23.70;55.20;;;;;;4201248;28;20170;-49
2021/04/19 08:04:49;;;;;;;3.50;2.60;;;23.60;55.00;;;;;;4199740;28;20098;-49
2021/04/19 08:06:52;;;;;;;4.15;3.05;;;23.60;55.10;;;;;;4201775;28;20092;-45
2021/04/19 08:09:05;;;;;;;5.63;2.90;;;23.60;55.30;;;;;;4197866;28;20032;-48
2021/04/19 08:11:07;;;;;;;;;;;23.60;55.40;;;;;;4203889;28;20020;-45
2021/04/19 08:13:19;;;;;;;4.78;2.55;;;23.60;55.50;;;;;;4198411;28;19908;-48
2021/04/19 08:15:22;;;;;;;3.35;2.50;;;23.60;55.40;;;;;;4195349;28;20037;-46
2021/04/19 08:17:33;;;;;;;6.50;2.50;;;23.60;55.50;;;;;;4198201;28;20043;-45
2021/04/19 08:19:41;;;;;;;4.10;2.40;;;23.60;55.50;;;;;;4199265;28;20492;-47
2021/04/19 08:21:43;;;;;;;6.18;2.95;;;23.60;55.30;;;;;;4197523;28;20671;-43
2021/04/19 08:23:45;;;;;;;5.47;2.95;;;23.60;54.60;;;;;;4199420;28;20048;-47
2021/04/19 08:25:50;;;;;;;5.13;3.05;;;23.60;54.80;;;;;;4195297;28;20617;-45
2021/04/19 08:28:02;;;;;;;4.55;2.80;;;23.50;55.00;;;;;;4200054;28;20166;-46
2021/04/19 08:30:06;;;;;;;4.40;3.00;;;23.50;55.10;;;;;;4198398;28;20047;-47
2021/04/19 08:32:09;;;;;;;4.10;2.85;;;23.50;55.30;;;;;;4181340;28;20777;-45
2021/04/19 08:34:11;;;;;;;5.82;2.38;;;23.50;55.40;;;;;;4192823;28;20016;-47
2021/04/19 08:36:16;;;;;;;3.03;2.33;;;23.50;55.60;;;;;;4197490;28;20681;-45
2021/04/19 08:38:20;;;;;;;3.88;2.35;;;23.50;55.60;;;;;;4197765;28;20024;-48
2021/04/19 08:40:24;;;;;;;3.08;2.38;;;23.50;55.60;;;;;;4200181;28;20137;-46
2021/04/19 08:42:27;;;;;;;2.85;2.13;;;23.50;55.60;;;;;;4200935;28;20059;-46
2021/04/19 08:44:35;;;;;;;3.55;2.10;;;23.50;55.60;;;;;;4196655;28;20044;-47
2021/04/19 08:46:37;;;;;;;2.40;2.03;;;23.50;55.70;;;;;;4202724;28;20398;-48
2021/04/19 08:48:39;;;;;;;4.15;2.03;;;23.50;55.70;;;;;;4199203;28;20492;-48
2021/04/19 08:50:45;;;;;;;4.18;2.17;;;23.50;55.70;;;;;;4201115;28;20040;-49
2021/04/19 08:52:47;;;;;;;3.08;2.22;;;23.50;55.70;;;;;;4198666;28;20024;-51
2021/04/19 08:54:50;;;;;;;3.95;2.20;;;23.50;55.80;;;;;;4200281;28;20047;-48
2021/04/19 08:56:53;;;;;;;3.20;2.17;;;23.50;55.80;;;;;;4199372;28;20440;-47
2021/04/19 08:58:55;;;;;;;4.30;2.78;;;23.50;55.40;;;;;;4199369;28;20380;-50
2021/04/19 09:01:00;;;;;;;3.13;2.58;;;23.50;55.50;;;;;;4198858;28;20666;-47
2021/04/19 09:03:03;;;;;;;3.45;2.50;;;23.50;55.60;;;;;;4197494;28;20052;-45
2021/04/19 09:05:14;;;;;;;3.78;2.42;;;23.50;55.70;;;;;;4199204;28;20031;-47
2021/04/19 09:07:32;;;;;;;3.13;2.40;;;23.50;55.80;;;;;;4198641;28;20156;-50
2021/04/19 09:09:41;;;;;;;3.42;2.10;;;23.50;55.80;;;;;;4195446;28;20465;-47
2021/04/19 09:11:44;;;;;;;2.78;2.30;;;23.50;56.00;;;;;;4199903;28;20109;-50
2021/04/19 09:13:46;;;;;;;3.30;2.30;;;23.50;56.00;;;;;;4199163;28;20361;-48
2021/04/19 09:15:48;;;;;;;2.60;2.10;;;23.50;56.10;;;;;;4177645;28;20033;-46
2021/04/19 09:18:10;;;;;;;3.20;2.30;;;23.50;56.10;;;;;;4198655;28;20062;-46
2021/04/19 09:20:13;;;;;;;3.75;1.98;;;23.50;56.10;;;;;;4199766;28;20043;-46
2021/04/19 09:22:20;;;;;;;3.88;2.40;;;23.50;56.20;;;;;;4195437;28;20024;-49
2021/04/19 09:24:24;;;;;;;3.03;1.90;;;23.50;56.30;;;;;;4196229;28;20129;-44
2021/04/19 09:26:45;;;;;;;;;;;23.50;55.70;;;;;;4197412;28;20020;-47
2021/04/19 09:28:47;;;;;;;2.85;2.25;;;23.50;56.20;;;;;;4199060;28;19958;-48
2021/04/19 09:30:52;;;;;;;3.97;2.80;;;23.50;55.90;;;;;;4196584;28;20611;-47
2021/04/19 09:33:06;;;;;;;5.57;3.58;;;23.40;55.40;;;;;;4174812;28;20047;-48
2021/04/19 09:35:08;;;;;;;6.03;3.67;;;23.40;55.10;;;;;;4197460;28;20043;-50
2021/04/19 09:37:16;;;;;;;7.32;3.95;;;23.40;55.10;;;;;;4197121;28;20457;-48
2021/04/19 09:39:50;;;;;;;6.63;4.35;;;23.30;55.00;;;;;;4198642;28;20532;-47
2021/04/19 09:41:52;;;;;;;;;;;23.30;55.10;;;;;;4196734;28;20044;-52
2021/04/19 09:43:57;;;;;;;4.45;3.75;;;23.20;55.00;;;;;;4197228;28;20435;-46
2021/04/19 09:46:01;;;;;;;6.90;3.88;;;23.20;55.20;;;;;;4195778;28;20028;-47
2021/04/19 09:48:03;;;;;;;6.00;3.80;;;23.20;55.30;;;;;;4192566;28;20040;-45
2021/04/19 09:50:06;;;;;;;5.88;4.15;;;23.20;56.00;;;;;;4199092;28;20032;-47
2021/04/19 09:52:11;;;;;;;5.72;4.00;;;23.10;55.40;;;;;;4199355;28;20044;-44
2021/04/19 09:54:18;;;;;;;5.18;3.90;;;23.20;55.50;;;;;;4199486;28;20414;-48
2021/04/19 09:56:32;;;;;;;6.15;4.35;;;23.10;55.40;;;;;;4199598;28;20115;-48
2021/04/19 09:58:39;;;;;;;5.68;4.20;;;23.10;55.30;;;;;;4198601;28;20349;-46
2021/04/19 10:00:42;;;;;;;5.97;3.83;;;23.10;55.50;;;;;;4194895;28;20036;-51
2021/04/19 10:02:45;;;;;;;6.10;3.97;;;23.10;55.50;;;;;;4198168;28;20040;-51
2021/04/19 10:04:50;;;;;;;5.18;4.20;;;23.00;55.50;;;;;;4199140;28;20032;-49
2021/04/19 10:07:01;;;;;;;4.68;3.63;;;23.00;55.40;;;;;;4196759;28;20028;-48
2021/04/19 10:09:09;;;;;;;5.85;3.83;;;23.00;55.50;;;;;;4196028;28;20114;-46
2021/04/19 10:11:13;;;;;;;5.25;3.63;;;23.00;55.50;;;;;;4194128;28;20077;-46
2021/04/19 10:13:15;;;;;;;5.40;4.28;;;23.00;55.60;;;;;;4180528;28;20442;-46
2021/04/19 10:15:22;;;;;;;6.82;4.20;;;22.90;55.70;;;;;;4180182;28;20128;-49
2021/04/19 10:17:27;;;;;;;5.78;3.95;;;22.90;55.70;;;;;;4192861;28;20025;-48
2021/04/19 10:19:30;;;;;;;6.35;4.00;;;22.90;55.80;;;;;;4199318;28;20031;-47
2021/04/19 10:21:32;;;;;;;6.85;4.15;;;22.90;55.70;;;;;;4194685;28;20504;-46
2021/04/19 10:23:41;;;;;;;6.55;4.05;;;22.90;55.70;;;;;;4178319;28;20044;-51
2021/04/19 10:25:54;;;;;;;5.18;4.30;;;22.90;55.70;;;;;;4198206;28;20473;-51
2021/04/19 10:27:56;;;;;;;6.55;4.50;;;22.90;55.70;;;;;;4195194;28;20035;-49
2021/04/19 10:30:15;;;;;;;5.28;3.88;;;22.80;55.70;;;;;;4197766;28;20151;-48
2021/04/19 10:32:31;;;;;;;6.15;4.15;;;22.80;55.70;;;;;;4193355;28;20123;-46
2021/04/19 10:34:35;;;;;;;5.65;4.63;;;22.70;55.70;;;;;;4194850;28;20123;-46
2021/04/19 10:36:47;;;;;;;6.28;4.25;;;22.70;55.80;;;;;;4194683;28;20090;-49
2021/04/19 10:38:53;;;;;;;8.07;4.32;;;22.60;55.90;;;;;;4198374;28;20047;-50
2021/04/19 10:40:59;;;;;;;5.95;4.20;;;22.60;56.60;;;;;;4183778;28;20118;-49
2021/04/19 10:43:12;;;;;;;5.38;3.85;;;22.60;57.90;;;;;;4197034;28;20690;-50
2021/04/19 10:46:00;;;;;;;9.32;4.07;;;22.60;57.40;;;;;;4197500;28;20024;-47
2021/04/19 10:48:35;;;;;;;4.05;3.35;;;22.70;57.80;;;;;;4199234;28;20036;-45
2021/04/19 10:50:37;;;;;;;4.85;3.08;;;22.70;57.80;;;;;;4168065;28;20080;-48
2021/04/19 10:52:53;;;;;;;6.97;3.53;;;22.70;58.00;;;;;;4203771;28;20158;-50
2021/04/19 10:54:55;;;;;;;5.38;3.30;;;22.70;57.90;;;;;;4200371;28;20268;-51
2021/04/19 10:56:58;;;;;;;4.82;3.33;;;22.70;57.40;;;;;;4199275;28;20036;-48